GLD1793 HUJI-HKKI
Flight info
| Callsign | GLD1793 |
|---|---|
| Flight time | 0h 34m |
| Altitude | 11000 |
| Route | UTOLO |
| Aircraft | BE58/M-SDFGIRY/S |
Departure
| Time | 2026-05-09 12:36 |
|---|---|
| Airport | Jinja Airport (HUJI) |
Arrival
| Time | 2026-05-09 13:11 |
|---|---|
| Airport | Kisumu International Airport (HKKI) |
| Time | Latitude | Longitude | Altitude | Speed | Heading |
|---|---|---|---|---|---|
| 2026-05-09 12:27 | 0.45302 | 33.19232 | 3869 ft | 0 kts | 296° |
| 2026-05-09 12:33 | 0.45327 | 33.19205 | 3869 ft | 8 kts | 320° |
| 2026-05-09 12:33 | 0.45356 | 33.19181 | 3870 ft | 5 kts | 320° |
| 2026-05-09 12:33 | 0.45402 | 33.19141 | 3869 ft | 12 kts | 317° |
| 2026-05-09 12:33 | 0.45466 | 33.19072 | 3868 ft | 16 kts | 307° |
| 2026-05-09 12:34 | 0.45528 | 33.19002 | 3865 ft | 6 kts | 72° |
| 2026-05-09 12:34 | 0.45522 | 33.19017 | 3865 ft | 0 kts | 121° |
| 2026-05-09 12:34 | 0.45522 | 33.19018 | 3865 ft | 2 kts | 121° |
| 2026-05-09 12:34 | 0.45360 | 33.19236 | 3868 ft | 74 kts | 127° |
| 2026-05-09 12:35 | 0.44943 | 33.19789 | 3890 ft | 119 kts | 128° |
| 2026-05-09 12:35 | 0.44462 | 33.20514 | 4081 ft | 131 kts | 123° |
| 2026-05-09 12:35 | 0.43856 | 33.21274 | 4109 ft | 149 kts | 138° |
| 2026-05-09 12:35 | 0.43193 | 33.22062 | 4263 ft | 154 kts | 114° |
| 2026-05-09 12:36 | 0.43150 | 33.23169 | 4337 ft | 170 kts | 82° |
| 2026-05-09 12:36 | 0.43414 | 33.24257 | 4886 ft | 151 kts | 75° |
| 2026-05-09 12:36 | 0.43638 | 33.25357 | 4811 ft | 178 kts | 98° |
| 2026-05-09 12:36 | 0.43105 | 33.26487 | 4844 ft | 182 kts | 126° |
| 2026-05-09 12:37 | 0.42517 | 33.27568 | 5173 ft | 174 kts | 112° |
| 2026-05-09 12:37 | 0.42144 | 33.28704 | 5517 ft | 170 kts | 108° |
| 2026-05-09 12:37 | 0.41799 | 33.29823 | 5865 ft | 167 kts | 108° |
| 2026-05-09 12:37 | 0.41454 | 33.30924 | 6221 ft | 165 kts | 107° |
| 2026-05-09 12:38 | 0.41110 | 33.32013 | 6556 ft | 164 kts | 107° |
| 2026-05-09 12:38 | 0.40768 | 33.33092 | 6895 ft | 163 kts | 107° |
| 2026-05-09 12:38 | 0.40427 | 33.34169 | 7240 ft | 162 kts | 107° |
| 2026-05-09 12:38 | 0.40088 | 33.35243 | 7591 ft | 161 kts | 107° |
| 2026-05-09 12:39 | 0.39750 | 33.36313 | 7949 ft | 162 kts | 108° |
| 2026-05-09 12:39 | 0.39415 | 33.37372 | 8302 ft | 162 kts | 108° |
| 2026-05-09 12:39 | 0.39078 | 33.38440 | 8664 ft | 161 kts | 108° |
| 2026-05-09 12:39 | 0.38581 | 33.39431 | 8990 ft | 165 kts | 136° |
| 2026-05-09 12:40 | 0.37493 | 33.39917 | 9018 ft | 183 kts | 165° |
| 2026-05-09 12:40 | 0.36418 | 33.40633 | 9017 ft | 195 kts | 126° |
| 2026-05-09 12:40 | 0.36024 | 33.41944 | 9017 ft | 205 kts | 91° |
| 2026-05-09 12:40 | 0.36054 | 33.43387 | 9014 ft | 210 kts | 92° |
| 2026-05-09 12:41 | 0.35845 | 33.44842 | 9012 ft | 214 kts | 106° |
| 2026-05-09 12:41 | 0.35368 | 33.46257 | 9011 ft | 215 kts | 111° |
| 2026-05-09 12:41 | 0.34855 | 33.47671 | 9010 ft | 217 kts | 110° |
| 2026-05-09 12:41 | 0.34370 | 33.49102 | 9010 ft | 218 kts | 109° |
| 2026-05-09 12:42 | 0.33902 | 33.50526 | 9008 ft | 219 kts | 109° |
| 2026-05-09 12:42 | 0.33415 | 33.51987 | 9008 ft | 219 kts | 109° |
| 2026-05-09 12:42 | 0.32937 | 33.53417 | 9008 ft | 219 kts | 109° |
| 2026-05-09 12:42 | 0.32454 | 33.54863 | 9009 ft | 220 kts | 109° |
| 2026-05-09 12:43 | 0.31970 | 33.56311 | 9005 ft | 220 kts | 109° |
| 2026-05-09 12:43 | 0.31485 | 33.57761 | 9005 ft | 219 kts | 110° |
| 2026-05-09 12:43 | 0.31004 | 33.59202 | 9007 ft | 218 kts | 110° |
| 2026-05-09 12:43 | 0.30525 | 33.60636 | 9007 ft | 218 kts | 109° |
| 2026-05-09 12:44 | 0.30208 | 33.61585 | 9009 ft | 217 kts | 110° |
| 2026-05-09 12:44 | 0.29753 | 33.63026 | 9008 ft | 217 kts | 107° |
| 2026-05-09 12:44 | 0.29335 | 33.64475 | 9007 ft | 217 kts | 107° |
| 2026-05-09 12:44 | 0.28903 | 33.65924 | 9009 ft | 217 kts | 108° |
| 2026-05-09 12:45 | 0.28463 | 33.67368 | 9005 ft | 217 kts | 108° |
| 2026-05-09 12:45 | 0.28025 | 33.68807 | 9009 ft | 217 kts | 108° |
| 2026-05-09 12:45 | 0.27589 | 33.70248 | 9004 ft | 217 kts | 108° |
| 2026-05-09 12:45 | 0.27148 | 33.71692 | 9005 ft | 218 kts | 108° |
| 2026-05-09 12:46 | 0.26705 | 33.73146 | 9006 ft | 219 kts | 108° |
| 2026-05-09 12:46 | 0.26267 | 33.74613 | 9006 ft | 220 kts | 108° |
| 2026-05-09 12:46 | 0.25824 | 33.76074 | 9006 ft | 219 kts | 108° |
| 2026-05-09 12:46 | 0.25382 | 33.77529 | 9006 ft | 219 kts | 108° |
| 2026-05-09 12:47 | 0.24937 | 33.78987 | 9009 ft | 219 kts | 108° |
| 2026-05-09 12:47 | 0.24495 | 33.80440 | 9010 ft | 218 kts | 108° |
| 2026-05-09 12:47 | 0.24062 | 33.81874 | 9010 ft | 219 kts | 108° |
| 2026-05-09 12:47 | 0.23614 | 33.83350 | 9011 ft | 219 kts | 108° |
| 2026-05-09 12:48 | 0.23178 | 33.84788 | 9005 ft | 219 kts | 108° |
| 2026-05-09 12:48 | 0.22737 | 33.86244 | 9004 ft | 218 kts | 108° |
| 2026-05-09 12:48 | 0.22296 | 33.87695 | 9002 ft | 218 kts | 108° |
| 2026-05-09 12:48 | 0.21856 | 33.89145 | 9003 ft | 218 kts | 108° |
| 2026-05-09 12:49 | 0.21416 | 33.90594 | 9001 ft | 218 kts | 108° |
| 2026-05-09 12:49 | 0.20980 | 33.92034 | 9003 ft | 217 kts | 108° |
| 2026-05-09 12:49 | 0.20540 | 33.93483 | 9002 ft | 217 kts | 108° |
| 2026-05-09 12:49 | 0.20101 | 33.94932 | 9003 ft | 218 kts | 108° |
| 2026-05-09 12:50 | 0.19661 | 33.96382 | 9001 ft | 218 kts | 108° |
| 2026-05-09 12:50 | 0.19220 | 33.97834 | 9000 ft | 219 kts | 108° |
| 2026-05-09 12:50 | 0.18784 | 33.99273 | 9001 ft | 219 kts | 108° |
| 2026-05-09 12:50 | 0.18341 | 34.00734 | 9002 ft | 220 kts | 108° |
| 2026-05-09 12:51 | 0.17898 | 34.02194 | 9003 ft | 219 kts | 108° |
| 2026-05-09 12:51 | 0.17456 | 34.03651 | 9004 ft | 219 kts | 108° |
| 2026-05-09 12:51 | 0.17015 | 34.05104 | 9001 ft | 218 kts | 108° |
| 2026-05-09 12:51 | 0.16575 | 34.06554 | 9002 ft | 218 kts | 108° |
| 2026-05-09 12:52 | 0.16137 | 34.07998 | 8999 ft | 218 kts | 108° |
| 2026-05-09 12:52 | 0.15696 | 34.09452 | 9001 ft | 218 kts | 108° |
| 2026-05-09 12:52 | 0.15259 | 34.10893 | 8999 ft | 215 kts | 108° |
| 2026-05-09 12:52 | 0.14828 | 34.12312 | 8997 ft | 212 kts | 108° |
| 2026-05-09 12:53 | 0.14400 | 34.13723 | 8996 ft | 211 kts | 108° |
| 2026-05-09 12:53 | 0.13976 | 34.15121 | 8992 ft | 209 kts | 108° |
| 2026-05-09 12:53 | 0.13557 | 34.16505 | 8993 ft | 208 kts | 108° |
| 2026-05-09 12:53 | 0.13141 | 34.17874 | 8994 ft | 207 kts | 108° |
| 2026-05-09 12:54 | 0.12723 | 34.19252 | 8993 ft | 207 kts | 108° |
| 2026-05-09 12:54 | 0.12306 | 34.20625 | 8990 ft | 207 kts | 108° |
| 2026-05-09 12:54 | 0.11889 | 34.22000 | 8992 ft | 207 kts | 108° |
| 2026-05-09 12:54 | 0.11470 | 34.23382 | 8991 ft | 207 kts | 108° |
| 2026-05-09 12:55 | 0.11051 | 34.24764 | 8994 ft | 208 kts | 108° |
| 2026-05-09 12:55 | 0.10632 | 34.26146 | 8997 ft | 208 kts | 107° |
| 2026-05-09 12:55 | 0.10217 | 34.27513 | 8994 ft | 208 kts | 108° |
| 2026-05-09 12:55 | 0.09797 | 34.28896 | 8996 ft | 208 kts | 108° |
| 2026-05-09 12:56 | 0.09379 | 34.30276 | 8994 ft | 208 kts | 108° |
| 2026-05-09 12:56 | 0.08957 | 34.31664 | 8991 ft | 208 kts | 108° |
| 2026-05-09 12:56 | 0.08539 | 34.33044 | 8996 ft | 208 kts | 108° |
| 2026-05-09 12:56 | 0.08120 | 34.34424 | 8994 ft | 208 kts | 107° |
| 2026-05-09 12:57 | 0.07701 | 34.35806 | 8995 ft | 208 kts | 108° |
| 2026-05-09 12:57 | 0.07282 | 34.37188 | 8995 ft | 208 kts | 108° |
| 2026-05-09 12:57 | 0.06862 | 34.38573 | 8995 ft | 208 kts | 108° |
| 2026-05-09 12:57 | 0.06439 | 34.39963 | 8998 ft | 208 kts | 108° |
| 2026-05-09 12:58 | 0.06019 | 34.41350 | 8999 ft | 208 kts | 108° |
| 2026-05-09 12:58 | 0.05602 | 34.42719 | 8998 ft | 209 kts | 108° |
| 2026-05-09 12:58 | 0.05182 | 34.44110 | 8997 ft | 209 kts | 108° |
| 2026-05-09 12:58 | 0.04759 | 34.45504 | 8997 ft | 209 kts | 108° |
| 2026-05-09 12:59 | 0.04336 | 34.46894 | 8998 ft | 209 kts | 108° |
| 2026-05-09 12:59 | 0.03915 | 34.48286 | 8999 ft | 209 kts | 107° |
| 2026-05-09 12:59 | 0.03494 | 34.49672 | 8996 ft | 208 kts | 107° |
| 2026-05-09 12:59 | 0.03075 | 34.51053 | 8996 ft | 207 kts | 107° |
| 2026-05-09 13:00 | 0.02662 | 34.52415 | 8996 ft | 207 kts | 108° |
| 2026-05-09 13:00 | 0.02243 | 34.53795 | 8996 ft | 207 kts | 108° |
| 2026-05-09 13:00 | 0.01825 | 34.55174 | 8996 ft | 207 kts | 108° |
| 2026-05-09 13:00 | 0.01405 | 34.56556 | 8996 ft | 207 kts | 107° |
| 2026-05-09 13:01 | 0.00988 | 34.57932 | 8996 ft | 207 kts | 107° |
| 2026-05-09 13:01 | 0.00566 | 34.59323 | 8885 ft | 212 kts | 107° |
| 2026-05-09 13:01 | 0.00130 | 34.60759 | 8645 ft | 219 kts | 107° |
| 2026-05-09 13:01 | -0.00304 | 34.62192 | 8365 ft | 206 kts | 107° |
| 2026-05-09 13:02 | -0.00699 | 34.63491 | 8098 ft | 186 kts | 107° |
| 2026-05-09 13:02 | -0.01060 | 34.64684 | 7859 ft | 173 kts | 108° |
| 2026-05-09 13:02 | -0.01398 | 34.65799 | 7636 ft | 163 kts | 108° |
| 2026-05-09 13:02 | -0.01890 | 34.66778 | 7394 ft | 157 kts | 140° |
| 2026-05-09 13:03 | -0.02874 | 34.67101 | 7139 ft | 152 kts | 189° |
| 2026-05-09 13:03 | -0.03813 | 34.66667 | 6912 ft | 148 kts | 212° |
| 2026-05-09 13:03 | -0.04683 | 34.66131 | 6692 ft | 147 kts | 212° |
| 2026-05-09 13:03 | -0.05563 | 34.65589 | 6471 ft | 154 kts | 212° |
| 2026-05-09 13:04 | -0.06495 | 34.65013 | 6290 ft | 160 kts | 212° |
| 2026-05-09 13:04 | -0.07452 | 34.64421 | 6110 ft | 164 kts | 212° |
| 2026-05-09 13:04 | -0.08429 | 34.63816 | 5944 ft | 166 kts | 213° |
| 2026-05-09 13:04 | -0.09282 | 34.63064 | 5766 ft | 165 kts | 243° |
| 2026-05-09 13:05 | -0.09386 | 34.61950 | 5603 ft | 167 kts | 288° |
| 2026-05-09 13:05 | -0.08645 | 34.61082 | 5462 ft | 170 kts | 330° |
| 2026-05-09 13:05 | -0.07491 | 34.60975 | 5314 ft | 176 kts | 15° |
| 2026-05-09 13:05 | -0.06527 | 34.61715 | 5111 ft | 181 kts | 58° |
| 2026-05-09 13:06 | -0.06114 | 34.62894 | 4883 ft | 181 kts | 84° |
| 2026-05-09 13:06 | -0.06115 | 34.64141 | 4700 ft | 179 kts | 91° |
| 2026-05-09 13:06 | -0.06448 | 34.65307 | 4607 ft | 172 kts | 127° |
| 2026-05-09 13:06 | -0.07125 | 34.66247 | 4599 ft | 161 kts | 125° |
| 2026-05-09 13:07 | -0.07625 | 34.67213 | 4589 ft | 157 kts | 99° |
| 2026-05-09 13:07 | -0.07565 | 34.68288 | 4598 ft | 156 kts | 83° |
| 2026-05-09 13:07 | -0.07441 | 34.69370 | 4684 ft | 156 kts | 84° |
| 2026-05-09 13:07 | -0.07301 | 34.70453 | 4691 ft | 160 kts | 84° |
| 2026-05-09 13:08 | -0.07173 | 34.71564 | 4695 ft | 161 kts | 84° |
| 2026-05-09 13:08 | -0.07020 | 34.72672 | 4700 ft | 162 kts | 78° |
| 2026-05-09 13:08 | -0.06754 | 34.73760 | 4740 ft | 164 kts | 78° |
| 2026-05-09 13:08 | -0.06454 | 34.74875 | 4694 ft | 168 kts | 76° |
| 2026-05-09 13:09 | -0.06232 | 34.76000 | 4691 ft | 162 kts | 99° |
| 2026-05-09 13:09 | -0.06734 | 34.76925 | 4688 ft | 150 kts | 148° |
| 2026-05-09 13:09 | -0.07689 | 34.77089 | 4692 ft | 140 kts | 200° |
| 2026-05-09 13:09 | -0.08344 | 34.76424 | 4639 ft | 143 kts | 254° |
| 2026-05-09 13:10 | -0.08149 | 34.75442 | 4380 ft | 145 kts | 292° |
| 2026-05-09 13:10 | -0.07771 | 34.74588 | 4162 ft | 115 kts | 262° |
| 2026-05-09 13:10 | -0.08021 | 34.73922 | 3860 ft | 93 kts | 241° |
| 2026-05-09 13:10 | -0.08316 | 34.73397 | 3801 ft | 76 kts | 238° |
| 2026-05-09 13:11 | -0.08523 | 34.73023 | 3792 ft | 40 kts | 243° |
| 2026-05-09 13:11 | -0.08514 | 34.72946 | 3790 ft | 7 kts | 331° |
| 2026-05-09 13:11 | -0.08475 | 34.72923 | 3789 ft | 6 kts | 330° |
| 2026-05-09 13:11 | -0.08447 | 34.72908 | 3789 ft | 4 kts | 332° |
| 2026-05-09 13:12 | -0.08422 | 34.72897 | 3788 ft | 4 kts | 343° |
| 2026-05-09 13:12 | -0.08394 | 34.72896 | 3789 ft | 6 kts | 4° |
| 2026-05-09 13:12 | -0.08356 | 34.72895 | 3789 ft | 6 kts | 346° |
| 2026-05-09 13:12 | -0.08321 | 34.72882 | 3789 ft | 6 kts | 337° |
| 2026-05-09 13:13 | -0.08282 | 34.72879 | 3789 ft | 4 kts | 47° |
| 2026-05-09 13:13 | -0.08268 | 34.72903 | 3790 ft | 2 kts | 62° |
| 2026-05-09 13:13 | -0.08265 | 34.72908 | 3790 ft | 0 kts | 62° |